createdAt,value
2018-09-01T00:00:28.689Z,0.00
2018-09-01T00:01:28.914Z,0.00
2018-09-01T00:02:29.139Z,0.00
2018-09-01T00:03:29.376Z,0.00
2018-09-01T00:04:29.593Z,0.00
2018-09-01T00:05:29.820Z,0.00
2018-09-01T00:06:30.045Z,0.00
2018-09-01T00:07:30.340Z,0.00
2018-09-01T00:08:30.498Z,0.00
2018-09-01T00:09:30.721Z,0.00
2018-09-01T00:10:30.949Z,0.00
2018-09-01T00:11:31.171Z,0.00
2018-09-01T00:12:31.398Z,0.00
2018-09-01T00:13:31.633Z,0.00
2018-09-01T00:14:31.845Z,0.00
2018-09-01T00:15:32.078Z,0.00
2018-09-01T00:16:32.297Z,0.00
2018-09-01T00:17:32.526Z,0.00
2018-09-01T00:18:32.753Z,0.00
2018-09-01T00:19:32.978Z,0.00
2018-09-01T00:20:33.203Z,0.00
2018-09-01T00:21:33.443Z,0.00
2018-09-01T00:22:33.658Z,0.00
2018-09-01T00:23:33.882Z,0.00
2018-09-01T00:24:34.110Z,0.00
2018-09-01T00:25:34.337Z,0.00
2018-09-01T00:26:34.565Z,0.00
2018-09-01T00:27:34.791Z,0.00
2018-09-01T00:28:35.027Z,0.00
2018-09-01T00:29:35.239Z,0.00
2018-09-01T00:30:35.499Z,0.00
2018-09-01T00:31:35.695Z,0.00
2018-09-01T00:32:35.926Z,0.00
2018-09-01T00:33:36.152Z,0.00
2018-09-01T00:34:36.372Z,0.00
2018-09-01T00:35:36.602Z,0.00
2018-09-01T00:36:36.828Z,0.00
2018-09-01T00:37:37.060Z,0.00
2018-09-01T00:38:37.287Z,0.00
2018-09-01T00:39:37.507Z,0.00
2018-09-01T00:40:37.739Z,0.00
2018-09-01T00:41:37.962Z,0.00
2018-09-01T00:42:38.191Z,0.00
2018-09-01T00:43:38.416Z,0.00
2018-09-01T00:44:38.647Z,0.00
2018-09-01T00:45:38.869Z,0.00
2018-09-01T00:46:39.097Z,0.00
2018-09-01T00:47:39.328Z,0.00
2018-09-01T00:48:39.550Z,0.00
2018-09-01T00:49:39.783Z,0.00
2018-09-01T00:50:40.004Z,0.00
2018-09-01T00:51:40.237Z,0.00
2018-09-01T00:52:40.459Z,0.00
2018-09-01T00:53:40.683Z,0.00
2018-09-01T00:54:40.909Z,0.00
2018-09-01T00:55:41.137Z,0.00
2018-09-01T00:56:41.359Z,0.00
2018-09-01T00:57:41.595Z,0.00
2018-09-01T00:58:41.816Z,0.00
2018-09-01T00:59:42.042Z,0.00
2018-09-01T01:00:42.273Z,0.00
2018-09-01T01:01:42.492Z,0.00
2018-09-01T01:02:42.721Z,0.00
2018-09-01T01:03:42.945Z,0.00
2018-09-01T01:04:43.177Z,0.00
2018-09-01T01:05:43.410Z,0.00
2018-09-01T01:06:43.630Z,0.00
2018-09-01T01:07:43.858Z,0.00
2018-09-01T01:08:44.087Z,0.00
2018-09-01T01:09:44.322Z,0.00
2018-09-01T01:10:44.537Z,0.00
2018-09-01T01:11:44.759Z,0.00
2018-09-01T01:12:44.984Z,0.00
2018-09-01T01:13:45.209Z,0.00
2018-09-01T01:14:45.439Z,0.00
2018-09-01T01:15:45.673Z,0.00
2018-09-01T01:16:45.891Z,0.00
2018-09-01T01:17:46.125Z,0.00
2018-09-01T01:18:46.348Z,0.00
2018-09-01T01:19:46.573Z,0.00
2018-09-01T01:20:46.801Z,0.00
2018-09-01T01:21:47.028Z,0.00
2018-09-01T01:22:47.253Z,0.00
2018-09-01T01:23:47.481Z,0.00
2018-09-01T01:24:47.709Z,0.00
2018-09-01T01:25:47.933Z,0.00
2018-09-01T01:26:48.161Z,0.00
2018-09-01T01:27:48.390Z,0.00
2018-09-01T01:28:48.616Z,0.00
2018-09-01T01:29:48.843Z,0.00
2018-09-01T01:30:49.070Z,0.00
2018-09-01T01:31:49.295Z,0.00
2018-09-01T01:32:49.525Z,0.00
2018-09-01T01:33:49.752Z,0.00
2018-09-01T01:34:49.977Z,0.00
2018-09-01T01:35:50.203Z,0.00
2018-09-01T01:36:50.428Z,0.00
2018-09-01T01:37:50.656Z,0.00
2018-09-01T01:38:50.884Z,0.00
2018-09-01T01:39:51.111Z,0.00
2018-09-01T01:40:51.335Z,0.00
2018-09-01T01:41:51.570Z,0.00
2018-09-01T01:42:51.797Z,0.00
2018-09-01T01:43:52.021Z,0.00
2018-09-01T01:44:52.247Z,0.00
2018-09-01T01:45:52.472Z,0.00
2018-09-01T01:46:52.704Z,0.00
2018-09-01T01:47:52.932Z,0.00
2018-09-01T01:48:53.157Z,0.00
2018-09-01T01:49:53.386Z,0.00
2018-09-01T01:50:53.612Z,0.00
2018-09-01T01:51:53.841Z,0.00
2018-09-01T01:52:54.064Z,0.00
2018-09-01T01:53:54.296Z,0.00
2018-09-01T01:54:54.513Z,0.00
2018-09-01T01:55:54.746Z,0.00
2018-09-01T01:56:54.967Z,0.00
2018-09-01T01:57:55.194Z,0.00
2018-09-01T01:58:55.422Z,0.00
2018-09-01T01:59:55.645Z,0.00
2018-09-01T02:00:55.872Z,0.00
2018-09-01T02:01:56.101Z,0.00
2018-09-01T02:02:56.327Z,0.00
2018-09-01T02:03:56.553Z,0.00
2018-09-01T02:04:56.783Z,0.00
2018-09-01T02:05:57.006Z,0.00
2018-09-01T02:06:57.232Z,0.00
2018-09-01T02:07:57.457Z,0.00
2018-09-01T02:08:57.683Z,0.00
2018-09-01T02:09:57.910Z,0.00
2018-09-01T02:10:58.139Z,0.00
2018-09-01T02:11:58.362Z,0.00
2018-09-01T02:12:58.593Z,0.00
2018-09-01T02:13:58.819Z,0.00
2018-09-01T02:14:59.039Z,0.00
2018-09-01T02:15:59.263Z,0.00
2018-09-01T02:16:59.491Z,0.00
2018-09-01T02:17:59.716Z,0.00
2018-09-01T02:18:59.953Z,0.00
2018-09-01T02:20:00.184Z,0.00
2018-09-01T02:21:00.409Z,0.00
2018-09-01T02:22:00.638Z,0.00
2018-09-01T02:23:00.867Z,0.00
2018-09-01T02:24:01.093Z,0.00
2018-09-01T02:25:01.326Z,0.00
2018-09-01T02:26:01.540Z,0.00
2018-09-01T02:27:01.764Z,0.00
2018-09-01T02:28:01.996Z,0.00
2018-09-01T02:29:02.220Z,0.00
2018-09-01T02:30:02.449Z,0.00
2018-09-01T02:31:02.671Z,0.00
2018-09-01T02:32:02.896Z,0.00
2018-09-01T02:33:03.121Z,0.00
2018-09-01T02:34:03.345Z,0.00
2018-09-01T02:35:03.575Z,0.00
2018-09-01T02:36:03.802Z,0.00
2018-09-01T02:37:04.034Z,0.00
2018-09-01T02:38:04.257Z,0.00
2018-09-01T02:39:04.481Z,0.00
2018-09-01T02:40:04.713Z,0.00
2018-09-01T02:41:04.940Z,0.00
2018-09-01T02:42:05.165Z,0.00
2018-09-01T02:43:05.394Z,0.00
2018-09-01T02:44:05.621Z,0.00
2018-09-01T02:45:05.849Z,0.00
2018-09-01T02:46:06.080Z,0.00
2018-09-01T02:47:06.306Z,0.00
2018-09-01T02:48:06.520Z,0.00
2018-09-01T02:49:06.750Z,0.00
2018-09-01T02:50:06.978Z,0.00
2018-09-01T02:51:07.198Z,0.00
2018-09-01T02:52:07.426Z,0.00
2018-09-01T02:53:07.653Z,0.00
2018-09-01T02:54:07.883Z,0.00
2018-09-01T02:55:08.107Z,0.00
2018-09-01T02:56:08.337Z,0.00
2018-09-01T02:57:08.560Z,0.00
2018-09-01T02:58:08.792Z,0.00
2018-09-01T02:59:09.012Z,0.00
2018-09-01T03:00:09.231Z,0.00
2018-09-01T03:01:09.465Z,0.00
2018-09-01T03:02:09.690Z,0.00
2018-09-01T03:03:09.917Z,0.00
2018-09-01T03:04:10.144Z,0.00
2018-09-01T03:05:10.367Z,0.00
2018-09-01T03:06:10.594Z,0.00
2018-09-01T03:07:10.819Z,0.00
2018-09-01T03:08:11.045Z,0.00
2018-09-01T03:09:11.275Z,0.00
2018-09-01T03:10:11.499Z,0.00
2018-09-01T03:11:11.722Z,0.00
2018-09-01T03:12:11.951Z,0.00
2018-09-01T03:13:12.176Z,0.00
2018-09-01T03:14:12.398Z,0.00
2018-09-01T03:15:12.621Z,0.00
2018-09-01T03:16:12.851Z,0.00
2018-09-01T03:17:13.081Z,0.00
2018-09-01T03:18:13.314Z,0.00
2018-09-01T03:19:13.536Z,0.00
2018-09-01T03:20:13.761Z,0.00
2018-09-01T03:21:13.986Z,0.00
2018-09-01T03:22:14.211Z,0.00
2018-09-01T03:23:14.439Z,0.00
2018-09-01T03:24:14.665Z,0.00
2018-09-01T03:25:14.890Z,0.00
2018-09-01T03:26:15.117Z,0.00
2018-09-01T03:27:15.341Z,0.00
2018-09-01T03:28:15.572Z,0.00
2018-09-01T03:29:15.794Z,0.00
2018-09-01T03:30:16.021Z,0.00
2018-09-01T03:31:16.252Z,0.00
2018-09-01T03:32:16.480Z,0.00
2018-09-01T03:33:16.703Z,0.00
2018-09-01T03:34:16.935Z,0.00
2018-09-01T03:35:17.161Z,0.00
2018-09-01T03:36:17.382Z,0.00
2018-09-01T03:37:17.612Z,0.00
2018-09-01T03:38:17.837Z,0.00
2018-09-01T03:39:18.063Z,0.00
2018-09-01T03:40:18.293Z,0.00
2018-09-01T03:41:18.518Z,0.00
2018-09-01T03:42:18.742Z,0.00
2018-09-01T03:43:18.971Z,0.00
2018-09-01T03:44:19.210Z,0.00
2018-09-01T03:45:19.416Z,0.00
2018-09-01T03:46:19.642Z,0.00
2018-09-01T03:47:19.871Z,0.00
2018-09-01T03:48:20.107Z,0.00
2018-09-01T03:49:20.323Z,0.00
2018-09-01T03:50:20.550Z,0.00
2018-09-01T03:51:20.776Z,0.00
2018-09-01T03:52:20.998Z,0.00
2018-09-01T03:53:21.228Z,0.00
2018-09-01T03:54:21.460Z,0.00
2018-09-01T03:55:21.669Z,0.00
2018-09-01T03:56:21.912Z,4.00
2018-09-01T03:57:22.136Z,4.00
2018-09-01T03:58:22.361Z,4.00
2018-09-01T03:59:22.591Z,0.00
2018-09-01T04:00:22.814Z,4.00
2018-09-01T04:01:23.044Z,4.00
2018-09-01T04:02:23.270Z,4.00
2018-09-01T04:03:23.491Z,4.00
2018-09-01T04:04:23.716Z,8.00
2018-09-01T04:05:23.940Z,4.00
2018-09-01T04:06:24.169Z,8.00
2018-09-01T04:07:24.391Z,12.00
2018-09-01T04:08:24.614Z,12.00
2018-09-01T04:09:24.839Z,12.00
2018-09-01T04:10:25.064Z,16.00
2018-09-01T04:11:25.291Z,20.00
2018-09-01T04:12:25.518Z,24.00
2018-09-01T04:13:25.747Z,24.00
2018-09-01T04:14:25.972Z,28.00
2018-09-01T04:15:26.198Z,32.00
2018-09-01T04:16:26.420Z,40.00
2018-09-01T04:17:26.649Z,44.00
2018-09-01T04:18:26.875Z,56.00
2018-09-01T04:19:27.100Z,60.00
2018-09-01T04:20:27.327Z,68.00
2018-09-01T04:21:27.554Z,80.00
2018-09-01T04:22:27.783Z,88.00
2018-09-01T04:23:28.009Z,100.00
2018-09-01T04:24:28.234Z,112.00
2018-09-01T04:25:28.463Z,124.00
2018-09-01T04:26:28.684Z,144.00
2018-09-01T04:27:28.910Z,156.00
2018-09-01T04:28:29.135Z,176.00
2018-09-01T04:29:29.362Z,188.00
2018-09-01T04:30:29.588Z,208.00
2018-09-01T04:31:29.814Z,228.00
2018-09-01T04:32:30.037Z,248.00
2018-09-01T04:33:30.265Z,272.00
2018-09-01T04:34:30.492Z,304.00
2018-09-01T04:35:30.718Z,332.00
2018-09-01T04:36:30.943Z,364.00
2018-09-01T04:37:31.170Z,396.00
2018-09-01T04:38:31.401Z,436.00
2018-09-01T04:39:31.623Z,480.00
2018-09-01T04:40:31.848Z,528.00
2018-09-01T04:41:32.077Z,576.00
2018-09-01T04:42:32.299Z,624.00
2018-09-01T04:43:32.525Z,668.00
2018-09-01T04:44:32.751Z,712.00
2018-09-01T04:45:32.975Z,744.00
2018-09-01T04:46:33.206Z,776.00
2018-09-01T04:47:33.469Z,812.00
2018-09-01T04:48:33.694Z,848.00
2018-09-01T04:49:33.921Z,892.00
2018-09-01T04:50:34.151Z,936.00
2018-09-01T04:51:34.378Z,988.00
2018-09-01T04:52:34.604Z,1040.00
2018-09-01T04:53:34.831Z,1092.00
2018-09-01T04:54:35.057Z,1160.00
2018-09-01T04:55:35.283Z,1220.00
2018-09-01T04:56:35.507Z,1304.00
2018-09-01T04:57:35.735Z,1532.00
2018-09-01T04:58:35.964Z,1592.00
2018-09-01T04:59:36.190Z,1408.00
2018-09-01T05:00:36.420Z,1424.00
2018-09-01T05:01:36.642Z,1528.00
2018-09-01T05:02:36.868Z,1568.00
2018-09-01T05:03:37.101Z,1572.00
2018-09-01T05:04:37.321Z,1608.00
2018-09-01T05:05:37.552Z,1628.00
2018-09-01T05:06:38.524Z,1624.00
2018-09-01T05:07:38.001Z,1620.00
2018-09-01T05:08:38.230Z,1608.00
2018-09-01T05:09:38.454Z,1604.00
2018-09-01T05:10:38.679Z,1612.00
2018-09-01T05:11:38.909Z,1616.00
2018-09-01T05:12:39.131Z,1648.00
2018-09-01T05:13:39.360Z,1644.00
2018-09-01T05:14:39.590Z,1660.00
2018-09-01T05:15:39.822Z,1680.00
2018-09-01T05:16:40.046Z,1724.00
2018-09-01T05:17:40.274Z,1816.00
2018-09-01T05:18:40.497Z,1852.00
2018-09-01T05:19:40.725Z,1916.00
2018-09-01T05:20:40.952Z,1976.00
2018-09-01T05:21:41.178Z,2072.00
2018-09-01T05:22:41.401Z,2192.00
2018-09-01T05:23:41.627Z,2376.00
2018-09-01T05:24:41.852Z,2512.00
2018-09-01T05:25:42.078Z,2568.00
2018-09-01T05:26:42.304Z,2628.00
2018-09-01T05:27:42.530Z,3008.00
2018-09-01T05:28:42.758Z,3260.00
2018-09-01T05:29:42.985Z,3296.00
2018-09-01T05:30:43.206Z,3772.00
2018-09-01T05:31:43.433Z,6324.00
2018-09-01T05:32:43.662Z,9804.00
2018-09-01T05:33:43.884Z,10804.00
2018-09-01T05:34:44.114Z,11004.00
2018-09-01T05:35:44.340Z,11568.00
2018-09-01T05:36:44.668Z,12320.00
2018-09-01T05:37:44.797Z,12320.00
2018-09-01T05:38:45.034Z,12640.00
2018-09-01T05:39:45.252Z,12296.00
2018-09-01T05:40:45.478Z,9992.00
2018-09-01T05:41:45.707Z,6404.00
2018-09-01T05:42:45.933Z,8408.00
2018-09-01T05:43:46.207Z,6684.00
2018-09-01T05:44:46.390Z,5556.00
2018-09-01T05:45:46.617Z,5132.00
2018-09-01T05:46:46.847Z,5044.00
2018-09-01T05:47:47.073Z,5424.00
2018-09-01T05:48:47.300Z,7036.00
2018-09-01T05:49:47.523Z,5736.00
2018-09-01T05:50:47.820Z,5020.00
2018-09-01T05:51:47.985Z,5140.00
2018-09-01T05:52:48.215Z,9172.00
2018-09-01T05:53:48.435Z,10808.00
2018-09-01T05:54:48.662Z,11468.00
2018-09-01T05:55:48.891Z,12424.00
2018-09-01T05:56:49.117Z,13344.00
2018-09-01T05:57:49.351Z,13728.00
2018-09-01T05:58:49.578Z,12332.00
2018-09-01T05:59:49.802Z,10776.00
2018-09-01T06:00:50.039Z,11824.00
2018-09-01T06:01:50.257Z,12016.00
2018-09-01T06:02:50.484Z,10744.00
2018-09-01T06:03:50.715Z,9956.00
2018-09-01T06:04:50.943Z,10652.00
2018-09-01T06:05:51.219Z,6100.00
2018-09-01T06:06:51.401Z,5444.00
2018-09-01T06:07:51.631Z,6388.00
2018-09-01T06:08:51.858Z,8792.00
2018-09-01T06:09:52.098Z,7952.00
2018-09-01T06:10:52.313Z,5136.00
2018-09-01T06:11:52.540Z,4796.00
2018-09-01T06:12:52.771Z,4924.00
2018-09-01T06:13:53.000Z,5168.00
2018-09-01T06:14:53.227Z,5468.00
2018-09-01T06:15:53.448Z,7928.00
2018-09-01T06:16:53.677Z,9620.00
2018-09-01T06:17:53.991Z,11132.00
2018-09-01T06:18:54.132Z,10880.00
2018-09-01T06:19:54.355Z,11180.00
2018-09-01T06:20:54.582Z,11488.00
2018-09-01T06:21:54.811Z,7488.00
2018-09-01T06:22:55.043Z,6736.00
2018-09-01T06:23:55.286Z,9084.00
2018-09-01T06:24:55.551Z,11336.00
2018-09-01T06:25:55.727Z,11368.00
2018-09-01T06:26:55.956Z,9468.00
2018-09-01T06:27:56.205Z,6108.00
2018-09-01T06:28:56.420Z,5380.00
2018-09-01T06:29:56.641Z,5972.00
2018-09-01T06:30:56.871Z,9220.00
2018-09-01T06:31:57.101Z,7284.00
2018-09-01T06:32:57.394Z,6004.00
2018-09-01T06:33:57.561Z,5800.00
2018-09-01T06:34:57.794Z,7940.00
2018-09-01T06:35:58.017Z,8536.00
2018-09-01T06:36:58.243Z,9016.00
2018-09-01T06:37:58.479Z,9512.00
2018-09-01T06:38:58.706Z,7376.00
2018-09-01T06:39:58.934Z,6764.00
2018-09-01T06:40:59.165Z,5460.00
2018-09-01T06:41:59.403Z,5132.00
2018-09-01T06:42:59.678Z,4968.00
2018-09-01T06:43:59.854Z,5056.00
2018-09-01T06:45:00.081Z,5292.00
2018-09-01T06:46:00.311Z,5000.00
2018-09-01T06:47:00.539Z,4628.00
2018-09-01T06:48:00.766Z,4584.00
2018-09-01T06:49:00.997Z,4564.00
2018-09-01T06:50:01.227Z,4548.00
2018-09-01T06:51:01.460Z,4568.00
2018-09-01T06:52:01.679Z,4632.00
2018-09-01T06:53:01.914Z,4716.00
2018-09-01T06:54:02.131Z,5048.00
2018-09-01T06:55:02.375Z,5132.00
2018-09-01T06:56:02.601Z,5056.00
2018-09-01T06:57:02.835Z,5356.00
2018-09-01T06:58:03.066Z,4948.00
2018-09-01T06:59:03.296Z,5064.00
2018-09-01T07:00:03.524Z,5244.00
2018-09-01T07:01:03.756Z,5272.00
2018-09-01T07:02:04.028Z,5256.00
2018-09-01T07:03:04.260Z,5444.00
2018-09-01T07:04:04.483Z,5596.00
2018-09-01T07:05:04.722Z,6008.00
2018-09-01T07:06:04.950Z,6000.00
2018-09-01T07:07:05.187Z,6488.00
2018-09-01T07:08:05.409Z,6752.00
2018-09-01T07:09:05.642Z,6928.00
2018-09-01T07:10:05.872Z,7028.00
2018-09-01T07:11:06.094Z,7528.00
2018-09-01T07:12:06.321Z,8144.00
2018-09-01T07:13:06.547Z,8756.00
2018-09-01T07:14:06.770Z,8856.00
2018-09-01T07:15:07.000Z,8876.00
2018-09-01T07:16:07.229Z,8632.00
2018-09-01T07:17:07.457Z,8424.00
2018-09-01T07:18:07.690Z,8516.00
2018-09-01T07:19:07.918Z,8424.00
2018-09-01T07:20:08.141Z,8716.00
2018-09-01T07:21:08.375Z,8912.00
2018-09-01T07:22:08.606Z,9016.00
2018-09-01T07:23:08.831Z,8860.00
2018-09-01T07:24:09.060Z,8012.00
2018-09-01T07:25:09.288Z,9080.00
2018-09-01T07:26:09.516Z,9248.00
2018-09-01T07:27:09.744Z,9304.00
2018-09-01T07:28:09.972Z,9356.00
2018-09-01T07:29:10.199Z,9412.00
2018-09-01T07:30:10.513Z,9492.00
2018-09-01T07:31:10.933Z,8744.00
2018-09-01T07:32:10.897Z,8268.00
2018-09-01T07:33:11.115Z,7760.00
2018-09-01T07:34:11.344Z,7492.00
2018-09-01T07:35:11.573Z,7084.00
2018-09-01T07:36:11.803Z,8000.00
2018-09-01T07:37:12.027Z,8196.00
2018-09-01T07:38:12.266Z,8520.00
2018-09-01T07:39:12.482Z,8392.00
2018-09-01T07:40:12.713Z,7856.00
2018-09-01T07:41:12.945Z,7696.00
2018-09-01T07:42:13.173Z,7576.00
2018-09-01T07:43:13.405Z,8028.00
2018-09-01T07:44:13.631Z,7884.00
2018-09-01T07:45:13.861Z,7784.00
2018-09-01T07:46:14.091Z,7572.00
2018-09-01T07:47:14.320Z,8016.00
2018-09-01T07:48:14.552Z,7732.00
2018-09-01T07:49:14.780Z,7460.00
2018-09-01T07:50:15.011Z,7656.00
2018-09-01T07:51:15.241Z,7884.00
2018-09-01T07:52:15.464Z,7744.00
2018-09-01T07:53:15.691Z,7824.00
2018-09-01T07:54:15.932Z,8028.00
2018-09-01T07:55:16.160Z,8336.00
2018-09-01T07:56:16.499Z,8636.00
2018-09-01T07:57:16.622Z,8900.00
2018-09-01T07:58:16.850Z,8880.00
2018-09-01T07:59:17.080Z,8804.00
2018-09-01T08:00:17.309Z,8916.00
2018-09-01T08:01:17.540Z,9032.00
2018-09-01T08:02:17.769Z,8932.00
2018-09-01T08:03:18.000Z,8972.00
2018-09-01T08:04:18.232Z,8984.00
2018-09-01T08:05:18.495Z,8956.00
2018-09-01T08:06:18.684Z,8888.00
2018-09-01T08:07:18.961Z,8836.00
2018-09-01T08:08:19.161Z,8752.00
2018-09-01T08:09:19.378Z,8776.00
2018-09-01T08:10:19.606Z,8696.00
2018-09-01T08:11:19.845Z,8652.00
2018-09-01T08:12:20.069Z,8588.00
2018-09-01T08:13:20.294Z,8548.00
2018-09-01T08:14:20.556Z,8428.00
2018-09-01T08:15:20.753Z,8436.00
2018-09-01T08:16:20.984Z,8380.00
2018-09-01T08:17:21.213Z,8316.00
2018-09-01T08:18:21.443Z,8264.00
2018-09-01T08:19:21.675Z,8208.00
2018-09-01T08:20:21.903Z,8156.00
2018-09-01T08:21:22.131Z,8096.00
2018-09-01T08:22:22.361Z,8032.00
2018-09-01T08:23:22.586Z,7988.00
2018-09-01T08:24:22.818Z,7932.00
2018-09-01T08:25:23.047Z,7892.00
2018-09-01T08:26:23.278Z,7860.00
2018-09-01T08:27:23.508Z,7832.00
2018-09-01T08:28:23.739Z,7804.00
2018-09-01T08:29:23.970Z,7772.00
2018-09-01T08:30:24.198Z,7728.00
2018-09-01T08:31:24.430Z,7704.00
2018-09-01T08:32:24.661Z,7668.00
2018-09-01T08:33:24.892Z,7644.00
2018-09-01T08:34:25.123Z,7616.00
2018-09-01T08:35:25.350Z,7592.00
2018-09-01T08:36:25.581Z,7572.00
2018-09-01T08:37:25.810Z,7536.00
2018-09-01T08:38:26.040Z,7508.00
2018-09-01T08:39:26.271Z,7484.00
2018-09-01T08:40:26.507Z,7460.00
2018-09-01T08:41:26.733Z,7440.00
2018-09-01T08:42:26.962Z,7428.00
2018-09-01T08:43:27.194Z,7408.00
2018-09-01T08:44:27.423Z,7396.00
2018-09-01T08:45:27.744Z,7376.00
2018-09-01T08:46:27.883Z,7368.00
2018-09-01T08:47:28.116Z,7344.00
2018-09-01T08:48:28.348Z,7336.00
2018-09-01T08:49:28.577Z,7312.00
2018-09-01T08:50:28.808Z,7296.00
2018-09-01T08:51:29.036Z,7280.00
2018-09-01T08:52:29.275Z,7260.00
2018-09-01T08:53:29.499Z,7260.00
2018-09-01T08:54:29.733Z,7236.00
2018-09-01T08:55:29.960Z,7212.00
2018-09-01T08:56:30.251Z,7196.00
2018-09-01T08:57:30.424Z,7192.00
2018-09-01T08:58:30.651Z,7180.00
2018-09-01T08:59:30.889Z,7168.00
2018-09-01T09:00:31.110Z,7156.00
2018-09-01T09:01:31.348Z,7144.00
2018-09-01T09:02:31.568Z,7132.00
2018-09-01T09:03:31.801Z,7124.00
2018-09-01T09:04:32.027Z,7096.00
2018-09-01T09:05:32.275Z,7100.00
2018-09-01T09:06:32.496Z,7096.00
2018-09-01T09:07:32.719Z,7088.00
2018-09-01T09:08:32.947Z,7076.00
2018-09-01T09:09:33.190Z,7068.00
2018-09-01T09:10:33.443Z,7056.00
2018-09-01T09:11:33.679Z,7056.00
2018-09-01T09:12:33.907Z,7056.00
2018-09-01T09:13:34.141Z,7048.00
2018-09-01T09:14:34.367Z,7048.00
2018-09-01T09:15:34.601Z,7056.00
2018-09-01T09:16:34.825Z,7064.00
2018-09-01T09:17:35.059Z,7060.00
2018-09-01T09:18:35.302Z,7040.00
2018-09-01T09:19:35.517Z,7024.00
2018-09-01T09:20:35.754Z,7028.00
2018-09-01T09:21:35.990Z,7028.00
2018-09-01T09:22:36.210Z,7036.00
2018-09-01T09:23:36.444Z,7028.00
2018-09-01T09:24:36.676Z,7044.00
2018-09-01T09:25:36.905Z,7036.00
2018-09-01T09:26:37.144Z,7048.00
2018-09-01T09:27:37.364Z,7040.00
2018-09-01T09:28:37.597Z,7052.00
2018-09-01T09:29:37.826Z,7080.00
2018-09-01T09:30:38.062Z,7088.00
2018-09-01T09:31:38.286Z,7096.00
2018-09-01T09:32:38.515Z,7096.00
2018-09-01T09:33:38.745Z,7088.00
2018-09-01T09:34:38.987Z,7088.00
2018-09-01T09:35:39.206Z,7100.00
2018-09-01T09:36:39.438Z,7120.00
2018-09-01T09:37:39.662Z,7132.00
2018-09-01T09:38:39.892Z,7144.00
2018-09-01T09:39:40.129Z,7148.00
2018-09-01T09:40:40.356Z,7148.00
2018-09-01T09:41:40.591Z,7148.00
2018-09-01T09:42:40.819Z,7180.00
2018-09-01T09:43:41.049Z,7216.00
2018-09-01T09:44:41.283Z,7240.00
2018-09-01T09:45:41.511Z,7252.00
2018-09-01T09:46:41.744Z,7244.00
2018-09-01T09:47:41.972Z,7272.00
2018-09-01T09:48:42.201Z,7296.00
2018-09-01T09:49:42.433Z,7316.00
2018-09-01T09:50:42.664Z,7324.00
2018-09-01T09:51:42.891Z,7316.00
2018-09-01T09:52:43.121Z,7312.00
2018-09-01T09:53:43.354Z,7296.00
2018-09-01T09:54:43.583Z,7308.00
2018-09-01T09:55:43.809Z,7316.00
2018-09-01T09:56:44.043Z,7320.00
2018-09-01T09:57:44.275Z,7352.00
2018-09-01T09:58:44.510Z,7416.00
2018-09-01T09:59:44.742Z,7504.00
2018-09-01T10:00:44.965Z,7576.00
2018-09-01T10:01:45.194Z,7648.00
2018-09-01T10:02:45.427Z,7748.00
2018-09-01T10:03:45.657Z,7816.00
2018-09-01T10:04:45.886Z,7908.00
2018-09-01T10:05:46.165Z,8048.00
2018-09-01T10:06:46.354Z,8188.00
2018-09-01T10:07:46.584Z,8304.00
2018-09-01T10:08:46.816Z,8432.00
2018-09-01T10:09:47.046Z,8592.00
2018-09-01T10:10:47.280Z,8624.00
2018-09-01T10:11:47.513Z,8628.00
2018-09-01T10:12:47.744Z,8544.00
2018-09-01T10:13:47.974Z,8504.00
2018-09-01T10:14:48.211Z,8624.00
2018-09-01T10:15:48.458Z,8720.00
2018-09-01T10:16:48.672Z,8648.00
2018-09-01T10:17:48.907Z,8532.00
2018-09-01T10:18:49.137Z,8332.00
2018-09-01T10:19:49.368Z,8292.00
2018-09-01T10:20:49.601Z,8344.00
2018-09-01T10:21:49.836Z,8312.00
2018-09-01T10:22:50.065Z,8208.00
2018-09-01T10:23:50.304Z,6768.00
2018-09-01T10:24:50.537Z,8196.00
2018-09-01T10:25:50.760Z,8236.00
2018-09-01T10:26:51.068Z,8268.00
2018-09-01T10:27:51.225Z,8304.00
2018-09-01T10:28:51.457Z,8428.00
2018-09-01T10:29:51.697Z,8528.00
2018-09-01T10:30:51.920Z,8572.00
2018-09-01T10:31:52.159Z,8632.00
2018-09-01T10:32:52.386Z,8628.00
2018-09-01T10:33:52.619Z,8608.00
2018-09-01T10:34:52.855Z,8628.00
2018-09-01T10:35:53.081Z,8728.00
2018-09-01T10:36:53.322Z,8760.00
2018-09-01T10:37:53.544Z,8836.00
2018-09-01T10:38:53.766Z,8824.00
2018-09-01T10:39:54.026Z,8888.00
2018-09-01T10:40:54.240Z,8952.00
2018-09-01T10:41:54.463Z,9000.00
2018-09-01T10:42:54.703Z,9028.00
2018-09-01T10:43:54.939Z,9128.00
2018-09-01T10:44:55.167Z,9228.00
2018-09-01T10:45:55.399Z,9304.00
2018-09-01T10:46:55.634Z,9360.00
2018-09-01T10:47:55.866Z,9556.00
2018-09-01T10:48:56.099Z,9832.00
2018-09-01T10:49:56.332Z,9832.00
2018-09-01T10:50:56.578Z,9764.00
2018-09-01T10:51:56.799Z,9684.00
2018-09-01T10:52:57.030Z,9228.00
2018-09-01T10:53:57.259Z,9136.00
2018-09-01T10:54:57.492Z,9092.00
2018-09-01T10:55:57.726Z,9088.00
2018-09-01T10:56:57.957Z,9004.00
2018-09-01T10:57:58.191Z,8904.00
2018-09-01T10:58:58.444Z,8800.00
2018-09-01T10:59:58.658Z,8624.00
2018-09-01T11:00:58.891Z,8464.00
2018-09-01T11:01:59.125Z,8332.00
2018-09-01T11:02:59.364Z,8244.00
2018-09-01T11:03:59.588Z,8224.00
2018-09-01T11:04:59.819Z,8180.00
2018-09-01T11:06:00.052Z,8020.00
2018-09-01T11:07:00.287Z,7888.00
2018-09-01T11:08:00.521Z,7860.00
2018-09-01T11:09:00.752Z,7888.00
2018-09-01T11:10:00.988Z,7916.00
2018-09-01T11:11:01.213Z,7884.00
2018-09-01T11:12:01.441Z,7816.00
2018-09-01T11:13:01.672Z,7856.00
2018-09-01T11:14:01.906Z,7856.00
2018-09-01T11:15:02.159Z,7744.00
2018-09-01T11:16:02.391Z,7584.00
2018-09-01T11:17:02.620Z,7532.00
2018-09-01T11:18:02.854Z,7564.00
2018-09-01T11:19:03.079Z,7588.00
2018-09-01T11:20:03.323Z,7580.00
2018-09-01T11:21:03.547Z,7568.00
2018-09-01T11:22:03.805Z,7532.00
2018-09-01T11:23:04.038Z,7488.00
2018-09-01T11:24:04.273Z,7452.00
2018-09-01T11:25:04.509Z,7432.00
2018-09-01T11:26:04.754Z,7412.00
2018-09-01T11:27:04.979Z,7420.00
2018-09-01T11:28:05.288Z,7428.00
2018-09-01T11:29:05.442Z,7368.00
2018-09-01T11:30:05.675Z,7308.00
2018-09-01T11:31:05.905Z,7280.00
2018-09-01T11:32:06.142Z,7296.00
2018-09-01T11:33:06.372Z,7348.00
2018-09-01T11:34:06.645Z,7344.00
2018-09-01T11:35:06.836Z,7296.00
2018-09-01T11:36:07.106Z,7244.00
2018-09-01T11:37:07.304Z,7236.00
2018-09-01T11:38:07.534Z,7208.00
2018-09-01T11:39:07.766Z,7176.00
2018-09-01T11:40:08.002Z,7100.00
2018-09-01T11:41:08.230Z,7020.00
2018-09-01T11:42:08.463Z,6972.00
2018-09-01T11:43:08.821Z,6956.00
2018-09-01T11:44:08.927Z,6944.00
2018-09-01T11:45:09.158Z,6932.00
2018-09-01T11:46:09.389Z,6952.00
2018-09-01T11:47:09.624Z,6948.00
2018-09-01T11:48:09.855Z,6936.00
2018-09-01T11:49:10.090Z,6932.00
2018-09-01T11:50:10.371Z,6928.00
2018-09-01T11:51:10.557Z,6924.00
2018-09-01T11:52:10.813Z,6920.00
2018-09-01T11:53:11.062Z,6924.00
2018-09-01T11:54:11.286Z,6912.00
2018-09-01T11:55:11.518Z,6896.00
2018-09-01T11:56:11.754Z,6868.00
2018-09-01T11:57:11.982Z,6844.00
2018-09-01T11:58:12.215Z,6808.00
2018-09-01T11:59:12.448Z,6780.00
2018-09-01T12:00:12.678Z,6772.00
2018-09-01T12:01:12.908Z,6784.00
2018-09-01T12:02:13.173Z,6780.00
2018-09-01T12:03:13.375Z,6780.00
2018-09-01T12:04:13.606Z,6784.00
2018-09-01T12:05:13.839Z,6792.00
2018-09-01T12:06:14.065Z,6776.00
2018-09-01T12:07:14.298Z,6764.00
2018-09-01T12:08:14.533Z,6744.00
2018-09-01T12:09:14.969Z,6736.00
2018-09-01T12:10:15.001Z,6736.00
2018-09-01T12:11:15.231Z,6752.00
2018-09-01T12:12:15.462Z,6740.00
2018-09-01T12:13:15.695Z,6732.00
2018-09-01T12:14:15.925Z,6744.00
2018-09-01T12:15:16.163Z,6752.00
2018-09-01T12:16:16.392Z,6744.00
2018-09-01T12:17:16.628Z,6752.00
2018-09-01T12:18:16.853Z,6776.00
2018-09-01T12:19:17.085Z,6788.00
2018-09-01T12:20:17.326Z,6788.00
2018-09-01T12:21:17.556Z,6764.00
2018-09-01T12:22:17.832Z,6736.00
2018-09-01T12:23:18.017Z,6712.00
2018-09-01T12:24:18.248Z,6700.00
2018-09-01T12:25:18.484Z,6688.00
2018-09-01T12:26:18.714Z,6696.00
2018-09-01T12:27:18.952Z,6692.00
2018-09-01T12:28:19.238Z,6700.00
2018-09-01T12:29:19.422Z,6700.00
2018-09-01T12:30:19.651Z,6696.00
2018-09-01T12:31:19.902Z,6692.00
2018-09-01T12:32:20.114Z,6680.00